Tupelo Regional Airport Tupelo US
ICAO: KTUP
IATA: TUP
Category: Medium
Scheduled Services: Yes

Elevation: 346 ft
TransAlt. 18000 ft.

Airport Communications:
ASOS:133.525
MEMPHIS CNTR:128.5
CTAF:118.775
GND:121.825
ARNG OPS:33.5
RDO:122.5
TWR:118.775

KTUP Zoom In..

If you have problems with the map follow the link
https://www.worldairports.se/pages/airport.php?
ICAO=KTUP

Runways:

(A) RW 18 length 7150 ft width 150 ft
---- / hdg 179

(B) RW 36 length 7150 ft width 150 ft
ILS 108.50 / hdg 359

Location; KTUP
Day. 12 / Time. 11.53 Zulu
* Altimeter: 30.44
* Temperature: -02° c. -28.4°f.
* Wind from: KTU° Speed P kn.
Dewpoint: -04° c.
Visibility: 10 Statute Miles.
Clouds: Clear (automated report).

KTUP 121153Z 01005KT 10SM CLR M02/M04 A3044 RMK AO2 SLP309 I1000 I6000 T10221039 10000 21022 56009


Wind From KTU°
Speed P kn.

 
 
jpsmedia worldairports.se 2019   terms of use